Time;durP1;ratioP1;P1;durP2;ratioP2;P2;SDS_P1;SDS_P2;PMS_P1;PMS_P2;Temp;Humidity;BMP_temperature;BMP_pressure;BME280_temperature;BME280_humidity;BME280_pressure;Samples;Min_cycle;Max_cycle;Signal;HPM_P1;HPM_P2
2023/04/24 00:00:24;;;;;;;2.83;1.43;;;16.60;72.40;;;;;;4888448;29;20233;-77
2023/04/24 00:02:56;;;;;;;2.83;1.20;;;16.60;72.50;;;;;;4888805;29;20205;-77
2023/04/24 00:05:25;;;;;;;2.60;1.40;;;16.60;72.50;;;;;;4890591;29;20193;-77
2023/04/24 00:07:55;;;;;;;2.03;1.43;;;16.50;72.50;;;;;;4893470;29;20205;-77
2023/04/24 00:10:23;;;;;;;4.03;1.83;;;16.50;72.50;;;;;;4897837;29;20223;-77
2023/04/24 00:12:53;;;;;;;3.13;1.73;;;16.50;72.70;;;;;;4900481;29;20196;-76
2023/04/24 00:15:21;;;;;;;4.03;1.43;;;16.50;72.70;;;;;;4899007;29;20232;-77
2023/04/24 00:17:49;;;;;;;2.93;1.60;;;16.50;72.80;;;;;;4897807;29;20232;-77
2023/04/24 00:20:18;;;;;;;2.40;1.30;;;16.40;72.90;;;;;;4898470;29;20216;-77
2023/04/24 00:22:47;;;;;;;3.07;1.60;;;16.40;73.10;;;;;;4894342;29;20196;-76
2023/04/24 00:25:15;;;;;;;3.30;1.53;;;16.40;73.10;;;;;;4898965;29;20201;-76
2023/04/24 00:27:43;;;;;;;3.70;1.63;;;16.40;73.30;;;;;;4896119;29;20243;-76
2023/04/24 00:30:13;;;;;;;2.77;1.63;;;16.40;73.60;;;;;;4895754;29;20658;-76
2023/04/24 00:32:42;;;;;;;2.47;1.33;;;16.30;73.70;;;;;;4898527;29;20200;-76
2023/04/24 00:35:11;;;;;;;2.13;1.73;;;16.30;73.80;;;;;;4898384;29;20232;-76
2023/04/24 00:37:39;;;;;;;4.23;1.93;;;16.30;73.90;;;;;;4896991;29;20296;-77
2023/04/24 00:40:08;;;;;;;5.43;2.30;;;16.20;74.00;;;;;;4894107;29;20247;-76
2023/04/24 00:42:37;;;;;;;6.93;1.87;;;16.20;74.00;;;;;;4896215;29;20192;-77
2023/04/24 00:45:07;;;;;;;2.93;1.90;;;16.20;74.10;;;;;;4900351;29;20208;-77
2023/04/24 00:47:37;;;;;;;3.40;1.93;;;16.20;74.30;;;;;;4899370;29;20263;-77
2023/04/24 00:50:06;;;;;;;7.70;3.00;;;16.20;74.60;;;;;;4891071;29;20219;-78
2023/04/24 00:52:35;;;;;;;4.10;2.77;;;16.10;74.70;;;;;;4896716;29;20195;-75
2023/04/24 00:55:05;;;;;;;3.77;2.43;;;16.10;74.90;;;;;;4899247;29;20204;-75
2023/04/24 00:57:34;;;;;;;6.70;1.83;;;16.10;75.80;;;;;;4896070;29;20258;-75
2023/04/24 01:00:03;;;;;;;2.90;2.23;;;16.00;75.70;;;;;;4896460;29;20665;-75
2023/04/24 01:02:34;;;;;;;2.23;1.30;;;15.90;75.90;;;;;;4894182;29;20199;-75
2023/04/24 01:05:05;;;;;;;4.73;2.17;;;15.90;76.10;;;;;;4899162;29;20245;-75
2023/04/24 01:07:33;;;;;;;2.13;1.50;;;15.80;76.10;;;;;;4894157;29;20233;-75
2023/04/24 01:10:02;;;;;;;3.90;1.83;;;15.80;76.30;;;;;;4898702;29;20193;-75
2023/04/24 01:12:30;;;;;;;2.97;1.87;;;15.80;76.30;;;;;;4896044;29;20200;-75
2023/04/24 01:14:59;;;;;;;4.40;2.57;;;15.80;76.40;;;;;;4896947;29;20901;-75
2023/04/24 01:17:27;;;;;;;4.57;2.67;;;15.70;77.70;;;;;;4898328;29;20665;-75
2023/04/24 01:19:56;;;;;;;5.60;2.30;;;15.70;76.60;;;;;;4892950;29;20255;-75
2023/04/24 01:22:26;;;;;;;4.47;2.13;;;15.70;76.70;;;;;;4894987;29;20599;-75
2023/04/24 01:24:55;;;;;;;8.83;2.03;;;15.70;76.70;;;;;;4899532;29;20714;-75
2023/04/24 01:27:23;;;;;;;4.33;2.23;;;15.60;76.70;;;;;;4897167;29;20197;-75
2023/04/24 01:29:52;;;;;;;4.10;1.97;;;15.60;77.10;;;;;;4898651;29;20650;-75
2023/04/24 01:32:20;;;;;;;5.33;1.87;;;15.60;77.30;;;;;;4901429;29;20204;-75
2023/04/24 01:34:49;;;;;;;4.20;1.97;;;15.50;77.20;;;;;;4900913;29;20232;-75
2023/04/24 01:37:18;;;;;;;4.63;1.90;;;15.50;77.30;;;;;;4896283;29;20712;-76
2023/04/24 01:39:48;;;;;;;6.13;2.03;;;15.40;77.50;;;;;;4896637;29;20201;-75
2023/04/24 01:42:17;;;;;;;2.67;1.90;;;15.40;77.80;;;;;;4902650;29;20249;-75
2023/04/24 01:44:45;;;;;;;4.57;1.93;;;15.40;78.00;;;;;;4895000;29;20204;-75
2023/04/24 01:47:14;;;;;;;4.67;2.23;;;15.30;77.90;;;;;;4892074;29;20250;-75
2023/04/24 01:49:43;;;;;;;3.17;2.13;;;15.30;77.90;;;;;;4895211;29;20241;-75
2023/04/24 01:52:12;;;;;;;7.60;2.90;;;15.30;77.90;;;;;;4893414;29;20196;-75
2023/04/24 01:54:40;;;;;;;3.73;2.67;;;15.30;78.00;;;;;;4895832;29;20253;-75
2023/04/24 01:57:10;;;;;;;2.40;1.90;;;15.20;77.90;;;;;;4888498;29;20836;-75
2023/04/24 01:59:38;;;;;;;2.70;1.60;;;15.20;78.10;;;;;;4894538;29;20587;-75
2023/04/24 02:02:07;;;;;;;3.47;1.83;;;15.20;78.90;;;;;;4894506;29;20256;-75
2023/04/24 02:04:35;;;;;;;2.53;1.70;;;15.20;78.10;;;;;;4899207;29;20200;-74
2023/04/24 02:07:04;;;;;;;3.17;2.20;;;15.20;78.20;;;;;;4901329;29;20247;-75
2023/04/24 02:09:32;;;;;;;1.87;1.37;;;15.10;78.20;;;;;;4897946;29;20232;-74
2023/04/24 02:12:01;;;;;;;3.90;1.50;;;15.10;78.20;;;;;;4897950;29;20615;-75
2023/04/24 02:14:31;;;;;;;5.13;2.10;;;15.10;78.20;;;;;;4906603;29;20208;-75
2023/04/24 02:17:00;;;;;;;4.00;1.90;;;15.10;78.40;;;;;;4903375;29;20271;-75
2023/04/24 02:19:28;;;;;;;3.03;1.87;;;15.10;78.60;;;;;;4901331;29;20244;-76
2023/04/24 02:21:57;;;;;;;4.73;2.20;;;15.10;78.40;;;;;;4901380;29;20535;-75
2023/04/24 02:24:25;;;;;;;3.20;1.80;;;15.00;78.70;;;;;;4907657;29;20204;-75
2023/04/24 02:26:53;;;;;;;3.00;1.80;;;15.00;78.70;;;;;;4904554;29;20242;-74
2023/04/24 02:29:22;;;;;;;3.93;2.40;;;15.00;78.80;;;;;;4898196;29;20201;-75
2023/04/24 02:31:52;;;;;;;3.27;2.07;;;15.00;79.10;;;;;;4903668;29;20252;-75
2023/04/24 02:34:20;;;;;;;3.47;1.83;;;14.90;79.00;;;;;;4891187;29;20240;-75
2023/04/24 02:36:48;;;;;;;3.90;1.70;;;14.90;79.10;;;;;;4897321;29;20224;-75
2023/04/24 02:39:18;;;;;;;6.17;1.90;;;14.90;79.10;;;;;;4898521;29;20220;-75
2023/04/24 02:41:47;;;;;;;3.37;2.40;;;14.80;79.10;;;;;;4893004;29;20256;-75
2023/04/24 02:44:15;;;;;;;3.30;1.83;;;14.90;79.60;;;;;;4894791;29;20209;-75
2023/04/24 02:46:44;;;;;;;5.03;1.97;;;14.80;79.60;;;;;;4899329;29;20586;-75
2023/04/24 02:49:13;;;;;;;3.47;1.80;;;14.80;79.60;;;;;;4899076;29;20208;-74
2023/04/24 02:51:42;;;;;;;4.73;1.90;;;14.80;79.60;;;;;;4900095;29;20231;-74
2023/04/24 02:54:10;;;;;;;4.70;2.83;;;14.80;80.00;;;;;;4904032;29;20613;-74
2023/04/24 02:56:39;;;;;;;11.57;3.10;;;14.70;80.50;;;;;;4899832;29;20561;-75
2023/04/24 02:59:07;;;;;;;4.53;1.90;;;14.70;81.30;;;;;;4895232;29;20227;-75
2023/04/24 03:01:35;;;;;;;6.87;2.03;;;14.70;81.90;;;;;;4898894;29;20236;-75
2023/04/24 03:04:04;;;;;;;5.27;2.63;;;14.70;82.20;;;;;;4901623;29;20269;-75
2023/04/24 03:06:35;;;;;;;4.47;2.57;;;14.60;82.00;;;;;;4901486;29;20208;-76
2023/04/24 03:09:04;;;;;;;4.27;2.20;;;14.60;82.60;;;;;;4903623;29;20200;-75
2023/04/24 03:11:33;;;;;;;2.90;1.73;;;14.60;82.50;;;;;;4904957;29;20196;-76
2023/04/24 03:14:01;;;;;;;3.20;2.10;;;14.50;82.40;;;;;;4898497;29;20217;-76
2023/04/24 03:16:29;;;;;;;4.10;1.90;;;14.50;82.30;;;;;;4903346;29;20224;-76
2023/04/24 03:18:58;;;;;;;3.93;2.03;;;14.50;82.20;;;;;;4897937;29;20224;-75
2023/04/24 03:21:27;;;;;;;4.13;2.33;;;14.50;82.20;;;;;;4894794;29;20256;-76
2023/04/24 03:23:56;;;;;;;2.03;1.80;;;14.50;82.10;;;;;;4890312;29;20795;-76
2023/04/24 03:26:25;;;;;;;4.27;2.00;;;14.50;81.90;;;;;;4901160;29;20296;-75
2023/04/24 03:28:53;;;;;;;3.13;2.43;;;14.50;81.90;;;;;;4900118;29;20200;-75
2023/04/24 03:31:21;;;;;;;3.50;2.07;;;14.50;81.80;;;;;;4897287;29;20204;-76
2023/04/24 03:33:50;;;;;;;4.40;2.77;;;14.50;82.70;;;;;;4895499;29;20204;-75
2023/04/24 03:36:19;;;;;;;5.17;2.60;;;14.60;82.00;;;;;;4886715;29;20228;-76
2023/04/24 03:38:47;;;;;;;2.73;1.90;;;14.60;82.00;;;;;;4889651;29;20721;-76
2023/04/24 03:41:17;;;;;;;3.90;2.03;;;14.70;81.80;;;;;;4890604;29;20638;-75
2023/04/24 03:43:45;;;;;;;2.63;1.50;;;14.70;81.60;;;;;;4895538;29;20674;-76
2023/04/24 03:46:14;;;;;;;6.10;2.40;;;14.70;81.60;;;;;;4888976;29;20199;-75
2023/04/24 03:48:43;;;;;;;4.60;1.80;;;14.70;81.70;;;;;;4888695;29;20208;-76
2023/04/24 03:51:11;;;;;;;3.83;2.07;;;14.70;81.70;;;;;;4897382;29;20596;-75
2023/04/24 03:53:40;;;;;;;4.37;1.97;;;14.60;81.80;;;;;;4892097;29;20200;-76
2023/04/24 03:56:08;;;;;;;4.37;2.13;;;14.70;81.80;;;;;;4897224;29;20196;-75
2023/04/24 03:58:38;;;;;;;2.43;1.53;;;14.60;81.60;;;;;;4894868;29;20228;-75
2023/04/24 04:01:07;;;;;;;2.33;1.60;;;14.60;82.20;;;;;;4897402;29;20200;-75
2023/04/24 04:03:35;;;;;;;5.13;2.60;;;14.50;81.90;;;;;;4890031;29;20268;-76
2023/04/24 04:06:04;;;;;;;4.47;3.27;;;14.50;81.90;;;;;;4893302;29;20654;-75
2023/04/24 04:08:32;;;;;;;7.30;2.00;;;14.50;82.50;;;;;;4883273;29;20382;-75
2023/04/24 04:11:01;;;;;;;2.83;1.80;;;14.50;82.20;;;;;;4898023;29;20192;-75
2023/04/24 04:13:32;;;;;;;4.30;2.10;;;14.40;82.10;;;;;;4895935;29;20193;-76
2023/04/24 04:16:02;;;;;;;3.90;1.83;;;14.50;82.10;;;;;;4900241;29;20192;-75
2023/04/24 04:18:30;;;;;;;3.20;1.97;;;14.50;82.10;;;;;;4897150;29;20232;-75
2023/04/24 04:20:58;;;;;;;3.00;1.57;;;14.50;82.10;;;;;;4895494;29;20229;-75
2023/04/24 04:23:27;;;;;;;2.63;1.77;;;14.50;82.20;;;;;;4895371;29;20220;-75
2023/04/24 04:25:56;;;;;;;4.60;2.27;;;14.50;82.50;;;;;;4896781;29;20204;-75
2023/04/24 04:28:24;;;;;;;3.83;1.87;;;14.50;82.40;;;;;;4896805;29;20224;-75
2023/04/24 04:30:53;;;;;;;7.45;2.70;;;14.60;82.60;;;;;;4902263;29;20503;-76
2023/04/24 04:33:23;;;;;;;5.27;1.50;;;14.60;83.00;;;;;;4902404;29;20198;-76
2023/04/24 04:35:52;;;;;;;4.70;2.53;;;14.70;83.10;;;;;;4893025;29;20796;-76
2023/04/24 04:38:20;;;;;;;3.87;2.00;;;14.70;83.00;;;;;;4882826;29;20228;-76
2023/04/24 04:40:49;;;;;;;4.17;1.90;;;14.80;83.10;;;;;;4893029;29;20544;-77
2023/04/24 04:43:18;;;;;;;6.07;2.10;;;14.80;83.00;;;;;;4899225;29;20201;-76
2023/04/24 04:45:48;;;;;;;3.23;2.00;;;14.90;83.10;;;;;;4897546;29;20593;-76
2023/04/24 04:48:17;;;;;;;5.83;2.03;;;14.90;82.90;;;;;;4897491;29;20233;-76
2023/04/24 04:50:47;;;;;;;3.80;1.77;;;15.00;82.80;;;;;;4896598;29;20253;-76
2023/04/24 04:53:15;;;;;;;3.83;2.03;;;15.00;82.70;;;;;;4901867;29;20267;-76
2023/04/24 04:55:43;;;;;;;3.10;2.03;;;15.10;83.40;;;;;;4901378;29;20200;-76
2023/04/24 04:58:12;;;;;;;4.23;1.80;;;15.10;82.50;;;;;;4902267;29;20224;-77
2023/04/24 05:00:41;;;;;;;10.00;1.83;;;15.10;82.50;;;;;;4897344;29;20200;-76
2023/04/24 05:03:09;;;;;;;8.60;2.33;;;15.20;82.50;;;;;;4905164;29;20196;-76
2023/04/24 05:05:50;;;;;;;4.80;2.27;;;15.20;82.40;;;;;;4893014;29;20193;-76
2023/04/24 05:08:18;;;;;;;4.60;2.53;;;15.20;82.50;;;;;;4892177;29;20205;-76
2023/04/24 05:10:54;;;;;;;5.80;2.60;;;15.20;82.70;;;;;;4892449;29;20203;-77
2023/04/24 05:13:23;;;;;;;7.53;3.23;;;15.30;82.70;;;;;;4897517;29;20208;-76
2023/04/24 05:16:06;;;;;;;3.73;2.40;;;15.30;82.70;;;;;;4894410;29;20200;-76
2023/04/24 05:18:35;;;;;;;6.07;2.33;;;15.30;83.10;;;;;;4892623;29;20756;-76
2023/04/24 05:21:05;;;;;;;9.47;2.27;;;15.30;82.90;;;;;;4898926;29;20193;-76
2023/04/24 05:23:33;;;;;;;4.37;2.00;;;15.40;82.90;;;;;;4896616;29;20201;-76
2023/04/24 05:26:02;;;;;;;4.27;2.67;;;15.40;82.90;;;;;;4895978;29;20205;-75
2023/04/24 05:28:33;;;;;;;5.03;3.20;;;15.40;82.90;;;;;;4894759;29;20722;-76
2023/04/24 05:31:02;;;;;;;7.53;3.10;;;15.50;82.90;;;;;;4905510;29;20619;-76
2023/04/24 05:33:30;;;;;;;6.40;3.40;;;15.50;82.80;;;;;;4906932;29;20200;-76
2023/04/24 05:35:58;;;;;;;7.33;3.20;;;15.60;82.70;;;;;;4891606;29;20224;-75
2023/04/24 05:38:28;;;;;;;5.57;3.03;;;15.60;82.60;;;;;;4894906;29;20772;-75
2023/04/24 05:40:56;;;;;;;5.20;3.47;;;15.70;82.50;;;;;;4898149;29;20240;-76
2023/04/24 05:43:25;;;;;;;8.03;3.57;;;15.70;82.30;;;;;;4899483;29;20247;-75
2023/04/24 05:45:53;;;;;;;4.50;2.53;;;15.80;82.30;;;;;;4899818;29;20196;-76
2023/04/24 05:48:23;;;;;;;7.47;3.43;;;15.90;82.30;;;;;;4906347;29;20204;-76
2023/04/24 05:50:52;;;;;;;9.83;4.10;;;15.90;82.20;;;;;;4898289;29;20657;-76
2023/04/24 05:53:20;;;;;;;7.00;3.20;;;16.00;82.10;;;;;;4904969;29;20202;-76
2023/04/24 05:55:50;;;;;;;7.77;3.50;;;16.10;82.00;;;;;;4898463;29;20560;-77
2023/04/24 05:58:18;;;;;;;3.83;2.33;;;16.10;81.90;;;;;;4903341;29;20284;-76
2023/04/24 06:00:47;;;;;;;8.77;3.37;;;16.20;81.90;;;;;;4893967;29;20196;-76
2023/04/24 06:03:16;;;;;;;5.97;3.97;;;16.30;81.50;;;;;;4908403;29;20208;-77
2023/04/24 06:05:44;;;;;;;8.70;3.67;;;16.30;80.40;;;;;;4894452;29;20196;-76
2023/04/24 06:08:13;;;;;;;4.47;2.87;;;16.40;79.70;;;;;;4902243;29;20193;-78
2023/04/24 06:10:41;;;;;;;8.57;3.37;;;16.50;80.00;;;;;;4908471;29;20192;-77
2023/04/24 06:13:11;;;;;;;12.33;3.57;;;16.60;79.40;;;;;;4895622;29;20196;-77
2023/04/24 06:15:40;;;;;;;6.73;2.87;;;16.80;79.70;;;;;;4895155;29;20203;-76
2023/04/24 06:18:09;;;;;;;8.60;3.93;;;16.80;79.70;;;;;;4895539;29;20228;-77
2023/04/24 06:20:38;;;;;;;8.23;4.17;;;17.00;79.60;;;;;;4902368;29;20286;-75
2023/04/24 06:23:06;;;;;;;6.97;3.80;;;17.00;78.40;;;;;;4892013;29;20347;-76
2023/04/24 06:25:35;;;;;;;9.33;4.60;;;17.10;78.20;;;;;;4891146;29;20939;-76
2023/04/24 06:28:03;;;;;;;13.20;3.87;;;17.20;78.10;;;;;;4898568;29;20193;-75
2023/04/24 06:30:33;;;;;;;6.40;3.87;;;17.30;77.90;;;;;;4905129;29;20211;-76
2023/04/24 06:33:01;;;;;;;7.03;3.37;;;17.40;77.90;;;;;;4895374;29;20229;-76
2023/04/24 06:35:46;;;;;;;7.23;4.10;;;17.50;77.20;;;;;;4905517;29;20319;-75
2023/04/24 06:38:15;;;;;;;6.07;3.73;;;17.60;76.30;;;;;;4892312;29;20715;-75
2023/04/24 06:40:44;;;;;;;4.07;2.93;;;17.70;76.30;;;;;;4886753;29;20209;-77
2023/04/24 06:43:13;;;;;;;6.77;3.00;;;17.80;75.90;;;;;;4890818;29;20197;-75
2023/04/24 06:45:43;;;;;;;4.80;2.63;;;17.90;75.90;;;;;;4893724;29;20668;-77
2023/04/24 06:48:12;;;;;;;4.87;3.17;;;18.10;75.80;;;;;;4894130;29;20204;-77
2023/04/24 06:50:40;;;;;;;3.43;1.90;;;18.10;74.90;;;;;;4895515;29;20256;-76
2023/04/24 06:53:10;;;;;;;3.77;2.97;;;18.20;74.10;;;;;;4892727;29;20201;-76
2023/04/24 06:55:39;;;;;;;6.97;2.40;;;18.30;73.70;;;;;;4899769;29;20283;-76
2023/04/24 06:58:07;;;;;;;3.47;2.27;;;18.40;74.00;;;;;;4901109;29;20192;-77
2023/04/24 07:00:36;;;;;;;4.07;2.33;;;18.50;73.90;;;;;;4899557;29;20205;-77
2023/04/24 07:03:06;;;;;;;4.43;2.20;;;18.60;73.30;;;;;;4893723;29;20567;-76
2023/04/24 07:05:35;;;;;;;4.73;3.20;;;18.60;72.50;;;;;;4906606;29;20286;-76
2023/04/24 07:08:05;;;;;;;4.50;2.50;;;18.70;71.70;;;;;;4900460;29;20228;-76
2023/04/24 07:10:35;;;;;;;3.67;2.10;;;18.70;71.20;;;;;;4902872;29;20196;-74
2023/04/24 07:13:03;;;;;;;5.77;3.43;;;18.80;70.80;;;;;;4896771;29;20650;-75
2023/04/24 07:15:32;;;;;;;3.90;2.13;;;18.80;70.80;;;;;;4891832;29;20279;-74
2023/04/24 07:18:01;;;;;;;3.53;1.97;;;18.80;70.90;;;;;;4893284;29;20336;-75
2023/04/24 07:20:34;;;;;;;4.27;2.53;;;18.80;70.80;;;;;;4897490;29;20288;-74
2023/04/24 07:23:03;;;;;;;5.43;2.70;;;18.90;70.40;;;;;;4899046;29;20212;-75
2023/04/24 07:25:31;;;;;;;3.33;2.50;;;18.90;70.00;;;;;;4906759;29;20204;-75
2023/04/24 07:28:00;;;;;;;7.40;3.57;;;18.90;69.70;;;;;;4903691;29;20676;-75
2023/04/24 07:30:29;;;;;;;3.77;2.43;;;18.90;68.80;;;;;;4899868;29;20203;-75
2023/04/24 07:32:57;;;;;;;4.90;2.50;;;19.00;69.20;;;;;;4896184;29;20212;-75
2023/04/24 07:35:26;;;;;;;5.07;3.07;;;19.10;69.10;;;;;;4901467;29;20232;-75
2023/04/24 07:37:56;;;;;;;6.50;3.53;;;19.10;68.30;;;;;;4903093;29;20645;-75
2023/04/24 07:40:25;;;;;;;5.23;2.40;;;19.10;68.90;;;;;;4894318;29;20252;-75
2023/04/24 07:42:53;;;;;;;7.17;3.07;;;19.20;69.20;;;;;;4895897;29;20206;-74
2023/04/24 07:45:22;;;;;;;4.10;2.10;;;19.30;69.30;;;;;;4898874;29;20205;-75
2023/04/24 07:47:52;;;;;;;3.90;2.70;;;19.30;69.40;;;;;;4899434;29;20207;-75
2023/04/24 07:50:20;;;;;;;5.43;2.77;;;19.40;68.50;;;;;;4898190;29;20240;-75
2023/04/24 07:52:49;;;;;;;4.67;2.70;;;19.40;68.10;;;;;;4899646;29;20192;-75
2023/04/24 07:55:19;;;;;;;4.23;2.13;;;19.40;68.20;;;;;;4906800;29;20215;-75
2023/04/24 07:57:52;;;;;;;3.27;2.20;;;19.50;68.60;;;;;;4901203;29;20204;-74
2023/04/24 08:00:20;;;;;;;6.43;2.37;;;19.50;68.20;;;;;;4892133;29;20228;-75
2023/04/24 08:02:49;;;;;;;3.97;2.53;;;19.60;67.80;;;;;;4894621;29;20201;-73
2023/04/24 08:05:18;;;;;;;7.43;2.00;;;19.60;67.60;;;;;;4902838;29;20286;-75
2023/04/24 08:07:48;;;;;;;4.47;2.57;;;19.70;66.60;;;;;;4895377;29;20204;-75
2023/04/24 08:10:18;;;;;;;8.83;1.93;;;19.70;66.80;;;;;;4900102;29;20205;-75
2023/04/24 08:12:46;;;;;;;2.73;2.23;;;19.80;66.90;;;;;;4895082;29;20612;-75
2023/04/24 08:15:15;;;;;;;5.60;2.30;;;19.90;66.70;;;;;;4889575;29;20208;-75
2023/04/24 08:17:43;;;;;;;3.57;1.80;;;19.90;66.10;;;;;;4888015;29;20613;-75
2023/04/24 08:20:14;;;;;;;3.87;1.67;;;20.00;66.10;;;;;;4898374;29;20232;-75
2023/04/24 08:22:43;;;;;;;2.83;1.33;;;20.10;65.90;;;;;;4898602;29;20235;-76
2023/04/24 08:25:12;;;;;;;2.63;1.43;;;20.10;64.90;;;;;;4909757;29;20559;-74
2023/04/24 08:27:44;;;;;;;3.50;1.52;;;20.20;65.90;;;;;;4894807;29;20196;-74
2023/04/24 08:30:13;;;;;;;2.97;1.87;;;20.20;65.20;;;;;;4895174;29;20196;-72
2023/04/24 08:32:42;;;;;;;3.43;1.47;;;20.30;65.40;;;;;;4900827;29;20923;-74
2023/04/24 08:35:10;;;;;;;2.97;1.65;;;20.40;65.20;;;;;;4894622;29;20193;-75
2023/04/24 08:37:41;;;;;;;3.03;2.08;;;20.40;64.30;;;;;;4900642;29;20291;-76
2023/04/24 08:40:14;;;;;;;5.43;2.83;;;20.40;63.70;;;;;;4891894;29;20761;-73
2023/04/24 08:42:45;;;;;;;6.10;1.58;;;20.60;64.20;;;;;;4894492;29;20197;-76
2023/04/24 08:45:14;;;;;;;3.95;1.25;;;20.60;64.80;;;;;;4892169;29;20615;-75
2023/04/24 08:47:44;;;;;;;3.28;1.45;;;20.70;64.20;;;;;;4895400;29;20196;-76
2023/04/24 08:50:12;;;;;;;2.28;1.60;;;20.70;63.00;;;;;;4898000;29;20616;-77
2023/04/24 08:52:42;;;;;;;2.63;1.10;;;20.70;62.90;;;;;;4892653;29;20204;-76
2023/04/24 08:55:11;;;;;;;1.63;0.98;;;20.80;63.10;;;;;;4892008;29;20255;-76
2023/04/24 08:57:40;;;;;;;2.45;1.50;;;20.90;63.40;;;;;;4901096;29;20502;-76
2023/04/24 09:00:11;;;;;;;2.03;1.15;;;21.00;63.50;;;;;;4899354;29;20250;-76
2023/04/24 09:02:43;;;;;;;1.60;1.10;;;21.10;63.20;;;;;;4890642;29;20657;-76
2023/04/24 09:05:13;;;;;;;3.15;1.20;;;21.20;62.70;;;;;;4892651;29;20189;-75
2023/04/24 09:07:44;;;;;;;3.72;1.30;;;21.30;62.20;;;;;;4898355;29;20192;-75
2023/04/24 09:10:13;;;;;;;1.23;0.95;;;21.30;59.90;;;;;;4904591;29;20202;-78
2023/04/24 09:12:42;;;;;;;1.80;1.23;;;21.30;59.70;;;;;;4897226;29;20617;-78
2023/04/24 09:15:13;;;;;;;2.45;1.20;;;21.40;59.10;;;;;;4900178;29;20201;-80
2023/04/24 09:17:41;;;;;;;5.90;1.38;;;21.40;58.70;;;;;;4904513;29;20646;-79
2023/04/24 09:20:10;;;;;;;1.67;0.90;;;21.40;58.40;;;;;;4900272;29;20258;-77
2023/04/24 09:22:38;;;;;;;2.00;0.88;;;21.50;59.00;;;;;;4895123;29;20200;-76
2023/04/24 09:25:09;;;;;;;1.98;1.35;;;21.50;59.60;;;;;;4897370;29;20603;-77
2023/04/24 09:27:37;;;;;;;2.67;1.08;;;21.50;59.50;;;;;;4896038;29;20276;-78
2023/04/24 09:30:08;;;;;;;1.48;1.10;;;21.60;60.00;;;;;;4895468;29;20553;-77
2023/04/24 09:35:20;;;;;;;3.25;1.23;;;21.70;59.70;;;;;;4886228;29;20232;-77
2023/04/24 09:37:49;;;;;;;4.82;1.17;;;21.60;59.10;;;;;;4900827;29;20228;-78
2023/04/24 09:40:19;;;;;;;2.00;1.08;;;21.70;59.30;;;;;;4897657;29;20228;-80
2023/04/24 09:42:53;;;;;;;3.25;1.02;;;21.80;59.20;;;;;;4900947;29;20204;-77
2023/04/24 09:45:22;;;;;;;2.17;1.35;;;21.90;59.20;;;;;;4902250;29;20201;-77
2023/04/24 09:47:54;;;;;;;3.17;0.85;;;21.90;57.70;;;;;;4899049;29;20197;-76
2023/04/24 09:50:23;;;;;;;1.80;1.23;;;22.00;57.00;;;;;;4894981;29;20200;-80
2023/04/24 09:52:59;;;;;;;2.15;1.40;;;22.00;53.00;;;;;;4899081;29;20331;-77
2023/04/24 09:55:27;;;;;;;2.10;1.17;;;22.10;54.50;;;;;;4910068;29;20384;-79
2023/04/24 09:57:58;;;;;;;3.13;1.65;;;22.10;54.90;;;;;;4903726;29;20245;-75
2023/04/24 10:00:28;;;;;;;2.78;0.93;;;22.20;54.40;;;;;;4896952;29;20279;-75
2023/04/24 10:02:59;;;;;;;2.90;0.85;;;22.20;55.30;;;;;;4901914;29;20554;-74
2023/04/24 10:05:29;;;;;;;1.42;1.00;;;22.30;55.40;;;;;;4901076;29;20200;-76
2023/04/24 10:07:59;;;;;;;3.72;1.38;;;22.30;55.30;;;;;;4897189;29;20260;-74
2023/04/24 10:10:27;;;;;;;1.65;0.98;;;22.30;57.30;;;;;;4899247;29;20658;-74
2023/04/24 10:12:56;;;;;;;2.08;1.33;;;22.40;55.50;;;;;;4891189;29;20228;-78
2023/04/24 10:15:27;;;;;;;1.90;0.90;;;22.40;54.70;;;;;;4895739;29;20275;-75
2023/04/24 10:17:58;;;;;;;6.88;1.33;;;22.50;55.40;;;;;;4899223;29;20268;-81
2023/04/24 10:20:30;;;;;;;2.42;1.30;;;22.50;51.20;;;;;;4903002;29;20212;-76
2023/04/24 10:23:00;;;;;;;1.60;0.90;;;22.50;52.30;;;;;;4904225;29;20216;-78
2023/04/24 10:25:32;;;;;;;1.27;1.02;;;22.50;52.60;;;;;;4900354;29;20256;-76
2023/04/24 10:28:02;;;;;;;1.23;1.10;;;22.50;51.70;;;;;;4899443;29;20259;-78
2023/04/24 10:30:34;;;;;;;2.22;0.73;;;22.50;51.50;;;;;;4898528;29;20391;-78
2023/04/24 10:33:05;;;;;;;3.35;1.13;;;22.50;51.50;;;;;;4898100;29;20196;-76
2023/04/24 10:35:36;;;;;;;9.73;1.75;;;22.60;51.90;;;;;;4897061;29;20228;-75
2023/04/24 10:38:08;;;;;;;0.85;0.75;;;22.60;51.50;;;;;;4897356;29;20192;-75
2023/04/24 10:40:37;;;;;;;2.47;1.40;;;22.70;51.90;;;;;;4897965;29;20217;-81
2023/04/24 10:43:08;;;;;;;2.40;1.20;;;22.70;51.80;;;;;;4895496;29;20200;-76
2023/04/24 10:45:36;;;;;;;1.15;0.90;;;22.80;52.30;;;;;;4897323;29;20298;-76
2023/04/24 10:48:10;;;;;;;4.90;1.10;;;22.80;52.80;;;;;;4900263;29;20238;-76
2023/04/24 10:50:47;;;;;;;1.55;1.17;;;22.80;52.50;;;;;;4899631;29;20208;-78
2023/04/24 10:53:18;;;;;;;3.05;1.15;;;22.90;52.60;;;;;;4901474;29;20257;-79
2023/04/24 10:55:49;;;;;;;2.15;1.27;;;23.00;53.00;;;;;;4904999;29;20211;-75
2023/04/24 10:58:18;;;;;;;1.45;1.15;;;23.10;52.50;;;;;;4901686;29;20653;-77
2023/04/24 11:00:57;;;;;;;4.00;1.20;;;23.10;52.30;;;;;;4896110;29;20228;-77
2023/04/24 11:03:29;;;;;;;2.45;1.45;;;23.20;52.60;;;;;;4895266;29;20192;-74
2023/04/24 11:06:00;;;;;;;1.58;0.98;;;23.30;52.10;;;;;;4892540;29;20599;-78
2023/04/24 11:08:31;;;;;;;2.08;1.08;;;23.30;51.30;;;;;;4901294;29;20192;-80
2023/04/24 11:11:01;;;;;;;1.85;1.30;;;23.40;51.70;;;;;;4897547;29;20200;-76
2023/04/24 11:14:04;;;;;;;1.58;0.93;;;23.30;50.70;;;;;;4895979;29;20200;-78
2023/04/24 11:16:34;;;;;;;1.10;0.80;;;23.40;50.70;;;;;;4898725;29;20288;-80
2023/04/24 11:19:06;;;;;;;1.92;0.90;;;23.40;50.40;;;;;;4897811;29;20597;-77
2023/04/24 11:21:43;;;;;;;5.45;1.30;;;23.40;50.30;;;;;;4901019;29;20212;-79
2023/04/24 11:24:31;;;;;;;1.90;1.25;;;23.50;50.70;;;;;;4896515;29;20619;-77
2023/04/24 11:27:07;;;;;;;3.67;1.23;;;23.60;51.30;;;;;;4895483;29;20662;-79
2023/04/24 11:29:49;;;;;;;1.95;1.45;;;23.60;51.40;;;;;;4889177;29;20207;-78
2023/04/24 11:32:26;;;;;;;1.42;0.80;;;23.60;51.00;;;;;;4899263;29;20252;-76
2023/04/24 11:34:58;;;;;;;1.27;0.77;;;23.60;51.10;;;;;;4895356;29;20201;-78
2023/04/24 11:37:29;;;;;;;3.30;1.20;;;23.70;51.30;;;;;;4893817;29;20221;-79
2023/04/24 11:39:59;;;;;;;2.03;0.82;;;23.70;50.20;;;;;;4894738;29;20204;-78
2023/04/24 11:42:29;;;;;;;6.57;1.40;;;23.80;51.70;;;;;;4895344;29;20223;-79
2023/04/24 11:44:59;;;;;;;2.15;1.20;;;23.80;50.70;;;;;;4889089;29;20379;-78
2023/04/24 11:47:30;;;;;;;2.58;1.20;;;23.80;50.30;;;;;;4893896;29;20204;-80
2023/04/24 11:50:02;;;;;;;1.75;0.90;;;23.80;50.00;;;;;;4893920;29;20595;-79
2023/04/24 11:52:31;;;;;;;2.20;1.00;;;23.90;49.90;;;;;;4897244;29;20239;-79
2023/04/24 11:55:01;;;;;;;1.67;1.00;;;23.90;49.30;;;;;;4901928;29;20658;-76
2023/04/24 11:57:33;;;;;;;2.42;1.45;;;24.00;50.60;;;;;;4891062;29;20211;-77
2023/04/24 12:00:02;;;;;;;2.30;1.13;;;24.00;50.10;;;;;;4891288;29;20669;-78
2023/04/24 12:02:32;;;;;;;1.63;1.00;;;24.10;49.90;;;;;;4890116;29;20272;-79
2023/04/24 12:05:03;;;;;;;2.08;1.17;;;24.10;48.90;;;;;;4895426;29;20203;-78
2023/04/24 12:07:42;;;;;;;2.53;1.15;;;24.20;50.00;;;;;;4888587;29;20661;-76
2023/04/24 12:10:11;;;;;;;2.15;1.55;;;24.30;50.40;;;;;;4890266;29;20677;-77
2023/04/24 12:12:39;;;;;;;1.58;0.95;;;24.30;50.40;;;;;;4893816;29;20670;-77
2023/04/24 12:15:09;;;;;;;4.40;0.85;;;24.50;50.10;;;;;;4890634;29;20196;-78
2023/04/24 12:17:42;;;;;;;2.15;1.08;;;24.50;49.80;;;;;;4891053;29;20268;-79
2023/04/24 12:20:14;;;;;;;1.67;1.27;;;24.60;48.40;;;;;;4889911;29;20197;-76
2023/04/24 12:22:47;;;;;;;1.80;1.10;;;24.60;49.00;;;;;;4895209;29;20209;-80
2023/04/24 12:25:18;;;;;;;1.20;0.85;;;24.60;48.90;;;;;;4898578;29;20200;-76
2023/04/24 12:27:47;;;;;;;2.22;1.00;;;24.60;49.40;;;;;;4893463;29;20236;-77
2023/04/24 12:30:17;;;;;;;4.32;0.80;;;24.60;49.40;;;;;;4899984;29;20204;-76
2023/04/24 12:32:47;;;;;;;1.88;1.02;;;24.60;48.70;;;;;;4901193;29;20199;-76
2023/04/24 12:35:21;;;;;;;2.08;1.42;;;24.50;48.30;;;;;;4894629;29;20307;-79
2023/04/24 12:37:50;;;;;;;2.22;0.85;;;24.50;49.40;;;;;;4891610;29;20197;-77
2023/04/24 12:40:19;;;;;;;1.23;0.77;;;24.50;48.30;;;;;;4891804;29;20257;-80
2023/04/24 12:42:49;;;;;;;1.83;0.82;;;24.50;47.80;;;;;;4890982;29;20224;-79
2023/04/24 12:45:19;;;;;;;1.60;1.00;;;24.50;48.30;;;;;;4894523;29;20204;-78
2023/04/24 12:47:49;;;;;;;1.70;1.27;;;24.50;48.30;;;;;;4893804;29;20196;-78
2023/04/24 12:50:19;;;;;;;3.28;1.08;;;24.40;47.30;;;;;;4906318;29;20196;-80
2023/04/24 12:52:48;;;;;;;2.33;1.08;;;24.30;47.30;;;;;;4895008;29;20204;-78
2023/04/24 12:55:16;;;;;;;2.03;1.10;;;24.30;48.40;;;;;;4890379;29;20613;-78
2023/04/24 12:57:44;;;;;;;1.92;1.20;;;24.40;49.20;;;;;;4895125;29;20199;-78
2023/04/24 13:00:13;;;;;;;5.78;1.25;;;24.50;49.40;;;;;;4890703;29;20607;-78